Palmersville, TN (38241)

5:04 AM CST on February 08, 2016 (GMT -0600)
Kemp Farms your Beck's Dealer | | Change Station
CLOSE
Current Station
Personal Weather Station
Location: Dresden, TN
Elevation: 436 ft
Nearby Weather Stations

Elev 436 ft 36.28 °N, 88.73 °W | Updated 5 minutes ago

Clear
Clear
40.7 °F
Feels Like 38 °F
N
4.0
Wind Variable Wind from NW
Gusts 10.0 mph

Today
High -- | Low -- °F
--% Chance of Precip.
Yesterday
High -- | Low -- °F
Precip. -- in
Pressure 29.82 in
Visibility 10.0 miles
Clouds Clear
Windchill 38 °F
Dew Point 25 °F
Humidity 55%
Rainfall 0.00 in
Snow Depth Not available.
6:50 AM 5:28 PM
Waning Crescent, 0% visible
METAR KUCY 081055Z AUTO 28009KT 10SM CLR 03/M04 A2982 RMK
Pressure 29.82 in
Visibility 10.0 miles
Clouds Clear
Windchill 38 °F
Dew Point 25 °F
Humidity 55%
Rainfall 0.00 in
Snow Depth Not available.
6:50 AM 5:28 PM
Waning Crescent, 0% visible
METAR KUCY 081055Z AUTO 28009KT 10SM CLR 03/M04 A2982 RMK

10-Day Weather Forecast

Almanac

Astronomy

Feb. 08, 2016 Rise Set
Actual Time
Civil Twilight
Nautical Twilight
Astronomical Twilight
Moon
Length of Visible Light
Length of Day
Tomorrow will be .
, % of the Moon is Illuminated

Today's Extremes

State Highs State Lows

Community

WunderPhotos

Upload Photos

1,891,420 photos uploaded!

WunderBlog® & News

Nearby

Air Quality

  Air Quality AQ Index Pollutant
Not available.

Snow Depth

Station Depth Elevation

Earthquake Activity

City Distance Mag. Time & Date
Minimum magnitude displayed is 2.5.

Coastal Water Temperatures

Place Temperature

Stations

Nearby Weather Stations

Station Location Temp. Windchill Dew Point Humidity Wind Precip. Elev Updated Type
                   

Watches & Warnings

There are currently no watches in effect.